Oval Lp No.11 — JL6306 — position and weather

sailwx.info

Track history (hours):
 
Tides and Currents Weather Stations Pressure Air Temp Water Temp Dewpoint Dewpoint Depression Visibility Wind Speed Wind Dir Waves Ship Positions

Oval Lp No.11

Last reported at 2017-Jun-01 04:02 UTC. Time now 2017-Aug-22 03:32 UTC.
Position N 34°36' E 134°55'.
Warning: this ship's position is months out of date.

Length 67 m; draft 3.6 m.

Type: Ship (hazmat cat A). MMSI: 431500366.

Date/timePositionNaut miles runAvg speedWind from/ knotsBaromVisibWave heightAir tempDewpointWater temp
2017-Jun-01 04:02N 34°36' E 134°55'312.7
2017-Jun-01 03:50N 34°37' E 134°58'411.2
2017-Jun-01 03:29N 34°37' E 135°02'611.7
2017-Jun-01 03:00N 34°36' E 135°09'611.7
2017-Jun-01 02:30N 34°37' E 135°16'611.4
2017-Jun-01 02:00N 34°36' E 135°23'3 5.8
2017-Jun-01 01:30N 34°34' E 135°26'0 0.0
2017-Jun-01 01:00N 34°34' E 135°26'0 0.0
2017-Jun-01 00:30N 34°34' E 135°26'0 0.0
2017-Jun-01 00:00N 34°34' E 135°26'0 0.0
2017-May-31 23:28N 34°34' E 135°26'1 1.5
2017-May-31 23:00N 34°35' E 135°25'2 3.8
2017-May-31 22:30N 34°36' E 135°24'3 5.1
2017-May-31 22:00N 34°35' E 135°21'510.3
2017-May-31 21:29N 34°31' E 135°17'510.9
2017-May-31 21:00N 34°29' E 135°11'611.5
2017-May-31 20:30N 34°24' E 135°06'611.1
2017-May-31 19:56N 34°20' E 135°01'610.6
2017-May-31 19:24N 34°15' E 134°59'511.4
2017-May-31 19:00N 34°10' E 134°60'611.7
2017-May-31 18:30N 34°04' E 135°01'8 0.2
2017-May-30 07:39N 33°57' E 135°01'212.3
2017-May-30 07:30N 33°58' E 135°00'712.3
2017-May-30 06:57N 34°05' E 134°59'612.7
2017-May-30 06:29N 34°11' E 134°59'1412.2
2017-May-30 05:20N 34°24' E 135°04'512.6
2017-May-30 04:57N 34°27' E 135°09'612.6
2017-May-30 04:30N 34°31' E 135°14'611.9
2017-May-30 03:59N 34°35' E 135°20'4 9.0
2017-May-30 03:30N 34°35' E 135°25'1 2.0
2017-May-30 03:00N 34°34' E 135°26'0 0.0
2017-May-30 02:30N 34°34' E 135°26'0 0.0
2017-May-30 01:55N 34°34' E 135°26'0 0.0
2017-May-30 01:25N 34°34' E 135°26'0 0.0
2017-May-30 00:49N 34°34' E 135°26'0 0.0
2017-May-30 00:20N 34°34' E 135°26'1 3.5
2017-May-30 00:01N 34°35' E 135°25'5 9.5
2017-May-29 23:30N 34°34' E 135°20'611.6
2017-May-29 23:00N 34°30' E 135°15'711.1
2017-May-29 22:25N 34°25' E 135°09'410.8
2017-May-29 22:00N 34°22' E 135°06'610.2
2017-May-29 21:28N 34°18' E 135°01'4 9.2
2017-May-29 21:00N 34°14' E 134°60'510.7
2017-May-29 20:31N 34°09' E 135°00'  
2017-May-27 11:50N 33°59' E 135°00'411.5
2017-May-27 11:28N 34°03' E 135°00'511.4
2017-May-27 11:00N 34°09' E 134°60'1610.2
2017-May-27 09:28N 34°24' E 135°04'712.6
2017-May-27 08:56N 34°27' E 135°11'512.1
2017-May-27 08:30N 34°31' E 135°15'611.7
2017-May-27 08:00N 34°35' E 135°21'4 0.9
2017-May-27 03:12N 34°35' E 135°26'1 4.5
2017-May-27 02:59N 34°35' E 135°25'4 7.4
2017-May-27 02:30N 34°36' E 135°21'4 7.9
2017-May-27 02:00N 34°35' E 135°25'1 0.2
2017-May-26 22:58N 34°34' E 135°26'2 4.9
2017-May-26 22:30N 34°36' E 135°24'1 0.6
2017-May-26 20:57N 34°36' E 135°23'0 0.1
2017-May-26 20:27N 34°36' E 135°23'0 0.0
2017-May-26 19:57N 34°36' E 135°23'0 0.1
2017-May-26 19:27N 34°36' E 135°23'0 0.1
2017-May-26 18:57N 34°36' E 135°23'0 0.1
2017-May-26 18:21N 34°36' E 135°23'0 0.0
2017-May-26 17:57N 34°36' E 135°23'0 0.1
2017-May-26 17:21N 34°36' E 135°23'0 0.0
2017-May-26 16:57N 34°36' E 135°23'0 0.0
2017-May-26 16:27N 34°36' E 135°23'0 0.0
2017-May-26 15:51N 34°36' E 135°23'0 0.1
2017-May-26 15:27N 34°36' E 135°23'0 0.0
2017-May-26 14:57N 34°36' E 135°23'0 0.0
2017-May-26 13:51N 34°36' E 135°23'0 0.0
2017-May-26 13:27N 34°36' E 135°23'0 0.0
2017-May-26 12:57N 34°36' E 135°23'0 0.0
2017-May-26 12:27N 34°36' E 135°23'0 0.0
2017-May-26 11:57N 34°36' E 135°23'0 0.0
2017-May-26 11:27N 34°36' E 135°23'0 0.0
2017-May-26 10:57N 34°36' E 135°23'3 7.4
2017-May-26 10:30N 34°34' E 135°20'611.6
2017-May-26 10:00N 34°30' E 135°15'611.3
2017-May-26 09:30N 34°26' E 135°09'712.1
2017-May-26 08:56N 34°21' E 135°04'711.9
2017-May-26 08:22N 34°15' E 134°60'411.0
2017-May-26 08:00N 34°11' E 135°00'611.7
2017-May-26 07:30N 34°05' E 135°01'207 9.5
2017-May-25 09:47N 34°47' E 139°07'512.0
2017-May-25 09:20N 34°51' E 139°11'1311.8
2017-May-25 08:14N 34°58' E 139°24'311.6
2017-May-25 07:59N 34°59' E 139°28'511.4
2017-May-25 07:30N 35°02' E 139°33'611.7
2017-May-25 07:00N 35°06' E 139°39'611.7
2017-May-25 06:30N 35°10' E 139°44'511.0
2017-May-25 06:00N 35°15' E 139°46'510.5
2017-May-25 05:30N 35°19' E 139°43'510.7
2017-May-25 05:00N 35°25' E 139°43'611.6
2017-May-25 04:30N 35°28' E 139°49'611.5
2017-May-25 04:00N 35°31' E 139°55'611.3
2017-May-25 03:30N 35°33' E 140°02'3 0.7
2017-May-24 23:48N 35°33' E 140°05'2 6.1
2017-May-24 23:29N 35°33' E 140°03'611.6
2017-May-24 23:00N 35°31' E 139°57'2 1.6
2017-May-24 21:42N 35°29' E 139°55'0 0.2
2017-May-24 21:29N 35°29' E 139°55'5 9.5
2017-May-24 21:00N 35°27' E 139°50'611.6
2017-May-24 20:30N 35°23' E 139°46'510.4
2017-May-24 20:00N 35°18' E 139°45'611.2
2017-May-24 19:30N 35°12' E 139°47'611.8
2017-May-24 19:00N 35°06' E 139°45'611.3
2017-May-24 18:30N 35°02' E 139°40'611.9
2017-May-24 18:00N 34°59' E 139°34'612.0
2017-May-24 17:30N 34°55' E 139°28'18 0.6
2017-May-23 10:19N 34°47' E 139°09'1310.7
2017-May-23 09:06N 34°57' E 139°19'510.3
2017-May-23 08:39N 34°59' E 139°24'210.3
2017-May-23 08:27N 35°00' E 139°26'510.1
2017-May-23 07:59N 35°02' E 139°31'510.0
2017-May-23 07:30N 35°05' E 139°36'510.8
2017-May-23 07:00N 35°07' E 139°42'510.5
2017-May-23 06:30N 35°12' E 139°46'510.1
2017-May-23 06:00N 35°17' E 139°45'5 9.9
2017-May-23 05:30N 35°21' E 139°42'510.0
2017-May-23 05:00N 35°26' E 139°45'510.6
2017-May-23 04:30N 35°29' E 139°50'510.6
2017-May-23 04:00N 35°31' E 139°56'510.5
2017-May-23 03:29N 35°33' E 140°02'2 0.5
2017-May-22 22:44N 35°33' E 140°05'2 4.5
2017-May-22 22:22N 35°33' E 140°03'1 2.3
2017-May-22 21:44N 35°33' E 140°02'2 9.2
2017-May-22 21:30N 35°32' E 139°60'612.2
2017-May-22 21:00N 35°29' E 139°53'612.0
2017-May-22 20:31N 35°25' E 139°48'611.9
2017-May-22 20:00N 35°20' E 139°44'611.2
2017-May-22 19:31N 35°15' E 139°47'612.2
2017-May-22 19:01N 35°08' E 139°46'612.1
2017-May-22 18:30N 35°03' E 139°42'612.2
2017-May-22 18:00N 34°59' E 139°36'  
Track history (hours):
 
Tides and Currents Weather Stations Pressure Air Temp Water Temp Dewpoint Dewpoint Depression Visibility Wind Speed Wind Dir Waves Ship Positions

Oval Lp No.11

Last reported at 2017-Jun-01 04:02 UTC. Time now 2017-Aug-22 03:32 UTC.
Position N 34°36' E 134°55'.
Warning: this ship's position is months out of date.

Length 67 m; draft 3.6 m.

Type: Ship (hazmat cat A). MMSI: 431500366.

Date/timePositionNaut miles runAvg speedWind from/ knotsBaromVisibWave heightAir tempDewpointWater temp
2017-Jun-01 04:02N 34°36' E 134°55'312.7
2017-Jun-01 03:50N 34°37' E 134°58'411.2
2017-Jun-01 03:29N 34°37' E 135°02'611.7
2017-Jun-01 03:00N 34°36' E 135°09'611.7
2017-Jun-01 02:30N 34°37' E 135°16'611.4
2017-Jun-01 02:00N 34°36' E 135°23'3 5.8
2017-Jun-01 01:30N 34°34' E 135°26'0 0.0
2017-Jun-01 01:00N 34°34' E 135°26'0 0.0
2017-Jun-01 00:30N 34°34' E 135°26'0 0.0
2017-Jun-01 00:00N 34°34' E 135°26'0 0.0
2017-May-31 23:28N 34°34' E 135°26'1 1.5
2017-May-31 23:00N 34°35' E 135°25'2 3.8
2017-May-31 22:30N 34°36' E 135°24'3 5.1
2017-May-31 22:00N 34°35' E 135°21'510.3
2017-May-31 21:29N 34°31' E 135°17'510.9
2017-May-31 21:00N 34°29' E 135°11'611.5
2017-May-31 20:30N 34°24' E 135°06'611.1
2017-May-31 19:56N 34°20' E 135°01'610.6
2017-May-31 19:24N 34°15' E 134°59'511.4
2017-May-31 19:00N 34°10' E 134°60'611.7
2017-May-31 18:30N 34°04' E 135°01'8 0.2
2017-May-30 07:39N 33°57' E 135°01'212.3
2017-May-30 07:30N 33°58' E 135°00'712.3
2017-May-30 06:57N 34°05' E 134°59'612.7
2017-May-30 06:29N 34°11' E 134°59'1412.2
2017-May-30 05:20N 34°24' E 135°04'512.6
2017-May-30 04:57N 34°27' E 135°09'612.6
2017-May-30 04:30N 34°31' E 135°14'611.9
2017-May-30 03:59N 34°35' E 135°20'4 9.0
2017-May-30 03:30N 34°35' E 135°25'1 2.0
2017-May-30 03:00N 34°34' E 135°26'0 0.0
2017-May-30 02:30N 34°34' E 135°26'0 0.0
2017-May-30 01:55N 34°34' E 135°26'0 0.0
2017-May-30 01:25N 34°34' E 135°26'0 0.0
2017-May-30 00:49N 34°34' E 135°26'0 0.0
2017-May-30 00:20N 34°34' E 135°26'1 3.5
2017-May-30 00:01N 34°35' E 135°25'5 9.5
2017-May-29 23:30N 34°34' E 135°20'611.6
2017-May-29 23:00N 34°30' E 135°15'711.1
2017-May-29 22:25N 34°25' E 135°09'410.8
2017-May-29 22:00N 34°22' E 135°06'610.2
2017-May-29 21:28N 34°18' E 135°01'4 9.2
2017-May-29 21:00N 34°14' E 134°60'510.7
2017-May-29 20:31N 34°09' E 135°00'  
2017-May-27 11:50N 33°59' E 135°00'411.5
2017-May-27 11:28N 34°03' E 135°00'511.4
2017-May-27 11:00N 34°09' E 134°60'1610.2
2017-May-27 09:28N 34°24' E 135°04'712.6
2017-May-27 08:56N 34°27' E 135°11'512.1
2017-May-27 08:30N 34°31' E 135°15'611.7
2017-May-27 08:00N 34°35' E 135°21'4 0.9
2017-May-27 03:12N 34°35' E 135°26'1 4.5
2017-May-27 02:59N 34°35' E 135°25'4 7.4
2017-May-27 02:30N 34°36' E 135°21'4 7.9
2017-May-27 02:00N 34°35' E 135°25'1 0.2
2017-May-26 22:58N 34°34' E 135°26'2 4.9
2017-May-26 22:30N 34°36' E 135°24'1 0.6
2017-May-26 20:57N 34°36' E 135°23'0 0.1
2017-May-26 20:27N 34°36' E 135°23'0 0.0
2017-May-26 19:57N 34°36' E 135°23'0 0.1
2017-May-26 19:27N 34°36' E 135°23'0 0.1
2017-May-26 18:57N 34°36' E 135°23'0 0.1
2017-May-26 18:21N 34°36' E 135°23'0 0.0
2017-May-26 17:57N 34°36' E 135°23'0 0.1
2017-May-26 17:21N 34°36' E 135°23'0 0.0
2017-May-26 16:57N 34°36' E 135°23'0 0.0
2017-May-26 16:27N 34°36' E 135°23'0 0.0
2017-May-26 15:51N 34°36' E 135°23'0 0.1
2017-May-26 15:27N 34°36' E 135°23'0 0.0
2017-May-26 14:57N 34°36' E 135°23'0 0.0
2017-May-26 13:51N 34°36' E 135°23'0 0.0
2017-May-26 13:27N 34°36' E 135°23'0 0.0
2017-May-26 12:57N 34°36' E 135°23'0 0.0
2017-May-26 12:27N 34°36' E 135°23'0 0.0
2017-May-26 11:57N 34°36' E 135°23'0 0.0
2017-May-26 11:27N 34°36' E 135°23'0 0.0
2017-May-26 10:57N 34°36' E 135°23'3 7.4
2017-May-26 10:30N 34°34' E 135°20'611.6
2017-May-26 10:00N 34°30' E 135°15'611.3
2017-May-26 09:30N 34°26' E 135°09'712.1
2017-May-26 08:56N 34°21' E 135°04'711.9
2017-May-26 08:22N 34°15' E 134°60'411.0
2017-May-26 08:00N 34°11' E 135°00'611.7
2017-May-26 07:30N 34°05' E 135°01'207 9.5
2017-May-25 09:47N 34°47' E 139°07'512.0
2017-May-25 09:20N 34°51' E 139°11'1311.8
2017-May-25 08:14N 34°58' E 139°24'311.6
2017-May-25 07:59N 34°59' E 139°28'511.4
2017-May-25 07:30N 35°02' E 139°33'611.7
2017-May-25 07:00N 35°06' E 139°39'611.7
2017-May-25 06:30N 35°10' E 139°44'511.0
2017-May-25 06:00N 35°15' E 139°46'510.5
2017-May-25 05:30N 35°19' E 139°43'510.7
2017-May-25 05:00N 35°25' E 139°43'611.6
2017-May-25 04:30N 35°28' E 139°49'611.5
2017-May-25 04:00N 35°31' E 139°55'611.3
2017-May-25 03:30N 35°33' E 140°02'3 0.7
2017-May-24 23:48N 35°33' E 140°05'2 6.1
2017-May-24 23:29N 35°33' E 140°03'611.6
2017-May-24 23:00N 35°31' E 139°57'2 1.6
2017-May-24 21:42N 35°29' E 139°55'0 0.2
2017-May-24 21:29N 35°29' E 139°55'5 9.5
2017-May-24 21:00N 35°27' E 139°50'611.6
2017-May-24 20:30N 35°23' E 139°46'510.4
2017-May-24 20:00N 35°18' E 139°45'611.2
2017-May-24 19:30N 35°12' E 139°47'611.8
2017-May-24 19:00N 35°06' E 139°45'611.3
2017-May-24 18:30N 35°02' E 139°40'611.9
2017-May-24 18:00N 34°59' E 139°34'612.0
2017-May-24 17:30N 34°55' E 139°28'18 0.6
2017-May-23 10:19N 34°47' E 139°09'1310.7
2017-May-23 09:06N 34°57' E 139°19'510.3
2017-May-23 08:39N 34°59' E 139°24'210.3
2017-May-23 08:27N 35°00' E 139°26'510.1
2017-May-23 07:59N 35°02' E 139°31'510.0
2017-May-23 07:30N 35°05' E 139°36'510.8
2017-May-23 07:00N 35°07' E 139°42'510.5
2017-May-23 06:30N 35°12' E 139°46'510.1
2017-May-23 06:00N 35°17' E 139°45'5 9.9
2017-May-23 05:30N 35°21' E 139°42'510.0
2017-May-23 05:00N 35°26' E 139°45'510.6
2017-May-23 04:30N 35°29' E 139°50'510.6
2017-May-23 04:00N 35°31' E 139°56'510.5
2017-May-23 03:29N 35°33' E 140°02'2 0.5
2017-May-22 22:44N 35°33' E 140°05'2 4.5
2017-May-22 22:22N 35°33' E 140°03'1 2.3
2017-May-22 21:44N 35°33' E 140°02'2 9.2
2017-May-22 21:30N 35°32' E 139°60'612.2
2017-May-22 21:00N 35°29' E 139°53'612.0
2017-May-22 20:31N 35°25' E 139°48'611.9
2017-May-22 20:00N 35°20' E 139°44'611.2
2017-May-22 19:31N 35°15' E 139°47'612.2
2017-May-22 19:01N 35°08' E 139°46'612.1
2017-May-22 18:30N 35°03' E 139°42'612.2
2017-May-22 18:00N 34°59' E 139°36'  

Dump ship's entire track history